createdAt,value
2018-07-24T00:01:15.099Z,99.90
2018-07-24T00:03:44.342Z,99.90
2018-07-24T00:06:13.618Z,99.90
2018-07-24T00:08:42.732Z,99.90
2018-07-24T00:11:12.049Z,99.90
2018-07-24T00:13:41.267Z,99.90
2018-07-24T00:16:10.381Z,99.90
2018-07-24T00:18:39.556Z,99.90
2018-07-24T00:21:08.863Z,99.90
2018-07-24T00:23:37.983Z,99.90
2018-07-24T00:28:36.059Z,99.90
2018-07-24T00:31:05.180Z,99.90
2018-07-24T00:36:03.112Z,99.90
2018-07-24T00:38:32.220Z,99.90
2018-07-24T00:41:01.447Z,99.90
2018-07-24T00:43:30.686Z,99.90
2018-07-24T00:45:59.818Z,99.90
2018-07-24T00:48:28.966Z,99.90
2018-07-24T00:50:58.250Z,99.90
2018-07-24T00:53:27.352Z,99.90
2018-07-24T00:55:56.532Z,99.90
2018-07-24T01:00:54.594Z,99.90
2018-07-24T01:03:24.389Z,99.90
2018-07-24T01:05:54.169Z,99.90
2018-07-24T01:08:23.362Z,99.90
2018-07-24T01:10:52.726Z,99.90
2018-07-24T01:13:22.030Z,99.90
2018-07-24T01:15:51.157Z,99.90
2018-07-24T01:18:20.637Z,99.90
2018-07-24T01:20:49.809Z,99.90
2018-07-24T01:23:18.961Z,99.90
2018-07-24T01:25:48.342Z,99.90
2018-07-24T01:28:17.434Z,99.90
2018-07-24T01:30:46.552Z,99.90
2018-07-24T01:33:15.918Z,99.90
2018-07-24T01:35:44.990Z,99.90
2018-07-24T01:38:14.463Z,99.90
2018-07-24T01:40:43.764Z,99.90
2018-07-24T01:43:12.912Z,99.90
2018-07-24T01:45:42.118Z,99.90
2018-07-24T01:48:12.748Z,99.90
2018-07-24T01:50:41.873Z,99.90
2018-07-24T01:53:10.992Z,99.90
2018-07-24T01:55:40.269Z,99.90
2018-07-24T01:58:09.370Z,99.90
2018-07-24T02:03:07.942Z,99.90
2018-07-24T02:05:37.124Z,99.90
2018-07-24T02:08:06.248Z,99.90
2018-07-24T02:10:35.546Z,99.90
2018-07-24T02:13:04.719Z,99.90
2018-07-24T02:15:33.997Z,99.90
2018-07-24T02:18:03.323Z,99.90
2018-07-24T02:20:32.533Z,99.90
2018-07-24T02:25:30.632Z,99.90
2018-07-24T02:28:00.024Z,99.90
2018-07-24T02:30:29.161Z,99.90
2018-07-24T02:32:58.497Z,99.90
2018-07-24T02:35:27.615Z,99.90
2018-07-24T02:37:56.748Z,99.90
2018-07-24T02:40:26.049Z,99.90
2018-07-24T02:42:55.188Z,99.90
2018-07-24T02:45:24.319Z,99.90
2018-07-24T02:50:22.429Z,99.90
2018-07-24T02:52:51.621Z,99.90
2018-07-24T02:55:21.061Z,99.90
2018-07-24T02:57:50.173Z,99.90
2018-07-24T03:00:19.345Z,99.90
2018-07-24T03:02:48.575Z,99.90
2018-07-24T03:05:17.699Z,99.90
2018-07-24T03:07:46.913Z,99.90
2018-07-24T03:10:16.345Z,99.90
2018-07-24T03:12:45.421Z,99.90
2018-07-24T03:15:14.577Z,99.90
2018-07-24T03:17:44.152Z,99.90
2018-07-24T03:20:13.377Z,99.90
2018-07-24T03:22:42.789Z,99.90
2018-07-24T03:25:12.176Z,99.90
2018-07-24T03:27:41.303Z,99.90
2018-07-24T03:30:10.444Z,99.90
2018-07-24T03:32:39.855Z,99.90
2018-07-24T03:35:08.974Z,99.90
2018-07-24T03:37:38.137Z,99.90
2018-07-24T03:40:07.495Z,99.90
2018-07-24T03:42:36.614Z,99.90
2018-07-24T03:45:05.916Z,99.90
2018-07-24T03:47:35.147Z,99.90
2018-07-24T03:50:04.373Z,99.90
2018-07-24T03:52:33.496Z,99.90
2018-07-24T03:55:02.844Z,99.90
2018-07-24T03:57:32.077Z,99.90
2018-07-24T04:00:01.243Z,99.90
2018-07-24T04:02:30.522Z,99.90
2018-07-24T04:04:59.609Z,99.90
2018-07-24T04:07:28.781Z,99.90
2018-07-24T04:09:58.315Z,99.90
2018-07-24T04:12:27.435Z,99.90
2018-07-24T04:14:56.593Z,99.90
2018-07-24T04:17:25.799Z,99.90
2018-07-24T04:19:55.009Z,99.90
2018-07-24T04:22:24.129Z,99.90
2018-07-24T04:24:54.197Z,99.90
2018-07-24T04:27:23.311Z,99.90
2018-07-24T04:29:52.456Z,99.90
2018-07-24T04:32:21.995Z,99.90
2018-07-24T04:34:51.207Z,99.90
2018-07-24T04:37:20.327Z,99.90
2018-07-24T04:39:50.033Z,99.90
2018-07-24T04:42:19.779Z,99.90
2018-07-24T04:44:48.995Z,99.90
2018-07-24T04:47:18.601Z,99.90
2018-07-24T04:49:47.704Z,99.90
2018-07-24T04:52:17.035Z,99.90
2018-07-24T04:54:46.358Z,99.90
2018-07-24T04:57:15.649Z,99.90
2018-07-24T04:59:45.717Z,99.90
2018-07-24T05:02:14.879Z,99.90
2018-07-24T05:04:44.177Z,99.90
2018-07-24T05:07:13.312Z,99.90
2018-07-24T05:09:43.652Z,99.90
2018-07-24T05:12:13.042Z,99.90
2018-07-24T05:14:42.215Z,99.90
2018-07-24T05:17:11.665Z,99.90
2018-07-24T05:19:40.965Z,99.90
2018-07-24T05:22:10.465Z,99.90
2018-07-24T05:24:39.592Z,99.90
2018-07-24T05:27:08.943Z,99.90
2018-07-24T05:29:38.054Z,99.90
2018-07-24T05:32:07.769Z,99.90
2018-07-24T05:34:37.039Z,99.90
2018-07-24T05:37:06.177Z,99.90
2018-07-24T05:39:35.331Z,99.90
2018-07-24T05:42:04.691Z,99.90
2018-07-24T05:44:33.861Z,99.90
2018-07-24T05:47:04.109Z,99.90
2018-07-24T05:49:33.455Z,99.90
2018-07-24T05:54:31.276Z,99.90
2018-07-24T05:57:01.115Z,99.90
2018-07-24T06:01:59.543Z,99.90
2018-07-24T06:04:29.170Z,99.90
2018-07-24T06:06:58.410Z,99.90
2018-07-24T06:09:27.633Z,99.90
2018-07-24T06:11:57.606Z,99.90
2018-07-24T06:14:26.794Z,99.90
2018-07-24T06:16:56.172Z,99.90
2018-07-24T06:19:25.477Z,99.90
2018-07-24T06:21:54.656Z,99.90
2018-07-24T06:24:23.872Z,99.90
2018-07-24T06:26:53.172Z,99.90
2018-07-24T06:29:22.482Z,99.90
2018-07-24T06:31:51.604Z,99.90
2018-07-24T06:34:20.905Z,99.90
2018-07-24T06:36:50.056Z,99.90
2018-07-24T06:41:48.293Z,99.90
2018-07-24T06:44:17.513Z,99.90
2018-07-24T06:46:47.835Z,99.90
2018-07-24T06:49:17.359Z,99.90
2018-07-24T06:51:46.561Z,99.90
2018-07-24T06:54:15.678Z,99.90
2018-07-24T06:56:44.935Z,99.90
2018-07-24T06:59:14.041Z,99.90
2018-07-24T07:04:12.325Z,99.90
2018-07-24T07:06:41.467Z,99.90
2018-07-24T07:09:10.621Z,99.90
2018-07-24T07:11:40.027Z,99.90
2018-07-24T07:14:09.111Z,99.90
2018-07-24T07:16:38.251Z,99.90
2018-07-24T07:19:07.815Z,99.90
2018-07-24T07:21:36.923Z,99.90
2018-07-24T07:26:35.107Z,99.90
2018-07-24T07:29:04.265Z,99.90
2018-07-24T07:31:34.496Z,99.90
2018-07-24T07:34:08.775Z,99.90
2018-07-24T07:36:38.275Z,99.90
2018-07-24T07:39:11.515Z,99.90
2018-07-24T07:41:40.889Z,99.90
2018-07-24T07:44:12.107Z,99.90
2018-07-24T07:49:09.980Z,99.90
2018-07-24T07:54:10.313Z,99.90
2018-07-24T07:56:40.665Z,99.90
2018-07-24T08:02:15.527Z,99.90
2018-07-24T08:04:44.649Z,99.90
2018-07-24T08:07:20.211Z,99.90
2018-07-24T08:09:49.359Z,99.90
2018-07-24T08:12:18.492Z,99.90
2018-07-24T08:14:55.424Z,99.90
2018-07-24T08:17:24.533Z,99.90
2018-07-24T08:19:54.216Z,99.90
2018-07-24T08:22:23.516Z,99.90
2018-07-24T08:24:53.825Z,99.90
2018-07-24T08:27:24.837Z,99.90
2018-07-24T08:29:53.973Z,99.90
2018-07-24T08:32:23.240Z,99.90
2018-07-24T08:34:52.743Z,99.90
2018-07-24T08:37:22.225Z,99.90
2018-07-24T08:40:08.577Z,99.90
2018-07-24T08:45:24.118Z,99.90
2018-07-24T08:47:53.634Z,99.90
2018-07-24T08:50:33.978Z,99.90
2018-07-24T08:53:09.027Z,99.90
2018-07-24T08:55:44.300Z,99.90
2018-07-24T08:58:13.698Z,99.90
2018-07-24T09:00:42.951Z,99.90
2018-07-24T09:05:43.045Z,99.90
2018-07-24T09:08:12.166Z,99.90
2018-07-24T09:10:48.786Z,99.90
2018-07-24T09:13:17.906Z,99.90
2018-07-24T09:15:57.332Z,99.90
2018-07-24T09:18:26.460Z,99.90
2018-07-24T09:23:24.806Z,99.90
2018-07-24T09:25:54.188Z,99.90
2018-07-24T09:28:40.225Z,99.90
2018-07-24T09:31:09.658Z,99.90
2018-07-24T09:36:26.440Z,99.90
2018-07-24T09:39:04.407Z,99.60
2018-07-24T09:41:33.807Z,99.10
2018-07-24T09:46:32.154Z,97.90
2018-07-24T09:49:02.178Z,97.90
2018-07-24T09:51:53.917Z,98.40
2018-07-24T09:56:57.579Z,98.40
2018-07-24T09:59:26.994Z,97.60
2018-07-24T10:01:56.022Z,97.40
2018-07-24T10:04:25.535Z,97.20
2018-07-24T10:06:55.816Z,98.00
2018-07-24T10:09:27.275Z,97.60
2018-07-24T10:11:56.596Z,97.90
2018-07-24T10:14:30.191Z,97.40
2018-07-24T10:16:59.478Z,98.10
2018-07-24T10:19:29.149Z,96.30
2018-07-24T10:21:58.369Z,95.70
2018-07-24T10:24:31.907Z,96.40
2018-07-24T10:27:01.054Z,97.50
2018-07-24T10:29:36.608Z,96.40
2018-07-24T10:32:05.836Z,96.90
2018-07-24T10:34:47.336Z,96.40
2018-07-24T10:37:16.538Z,95.90
2018-07-24T10:39:45.759Z,95.40
2018-07-24T10:44:43.812Z,94.90
2018-07-24T10:47:12.916Z,95.60
2018-07-24T10:49:43.150Z,94.30
2018-07-24T10:52:12.609Z,93.10
2018-07-24T10:54:46.238Z,92.90
2018-07-24T10:57:15.588Z,93.20
2018-07-24T10:59:49.893Z,92.50
2018-07-24T11:02:19.161Z,93.20
2018-07-24T11:04:48.949Z,91.80
2018-07-24T11:07:18.076Z,92.00
2018-07-24T11:12:41.389Z,92.40
2018-07-24T11:17:39.367Z,91.70
2018-07-24T11:20:14.107Z,91.20
2018-07-24T11:22:43.381Z,90.20
2018-07-24T11:25:16.710Z,87.80
2018-07-24T11:27:46.575Z,82.60
2018-07-24T11:30:16.762Z,81.30
2018-07-24T11:32:46.625Z,81.50
2018-07-24T11:40:14.165Z,78.90
2018-07-24T11:42:43.289Z,79.20
2018-07-24T11:45:23.514Z,76.00
2018-07-24T11:47:55.794Z,75.90
2018-07-24T11:50:27.633Z,74.70
2018-07-24T11:52:56.773Z,74.00
2018-07-24T11:55:26.551Z,74.30
2018-07-24T11:57:56.449Z,74.20
2018-07-24T12:00:29.013Z,74.00
2018-07-24T12:02:59.112Z,70.30
2018-07-24T12:12:36.133Z,75.70
2018-07-24T12:17:34.388Z,69.30
2018-07-24T12:20:03.754Z,69.00
2018-07-24T12:22:34.717Z,69.80
2018-07-24T12:25:04.056Z,67.10
2018-07-24T12:27:33.202Z,62.00
2018-07-24T12:30:14.739Z,62.80
2018-07-24T12:32:44.646Z,64.00
2018-07-24T12:38:18.608Z,61.60
2018-07-24T12:40:48.482Z,62.20
2018-07-24T12:46:18.172Z,66.50
2018-07-24T12:48:47.334Z,62.90
2018-07-24T12:51:30.196Z,62.60
2018-07-24T12:54:00.156Z,63.50
2018-07-24T12:56:42.268Z,62.50
2018-07-24T12:59:12.662Z,60.20
2018-07-24T13:01:43.702Z,62.40
2018-07-24T13:04:25.637Z,59.60
2018-07-24T13:06:55.559Z,60.20
2018-07-24T13:12:27.328Z,61.60
2018-07-24T13:14:56.656Z,61.60
2018-07-24T13:17:38.626Z,59.40
2018-07-24T13:20:08.944Z,58.20
2018-07-24T13:25:06.906Z,58.60
2018-07-24T13:27:36.184Z,57.40
2018-07-24T13:30:05.635Z,55.80
2018-07-24T13:32:34.888Z,57.30
2018-07-24T13:35:04.594Z,58.20
2018-07-24T13:37:33.813Z,60.10
2018-07-24T13:40:03.008Z,56.30
2018-07-24T13:42:32.320Z,56.50
2018-07-24T13:45:01.525Z,54.10
2018-07-24T13:47:30.616Z,54.30
2018-07-24T13:49:59.913Z,53.80
2018-07-24T13:52:29.036Z,55.80
2018-07-24T13:54:58.133Z,55.80
2018-07-24T13:57:27.407Z,55.80
2018-07-24T13:59:56.622Z,56.00
2018-07-24T14:04:54.828Z,58.00
2018-07-24T14:09:52.619Z,56.00
2018-07-24T14:12:21.878Z,56.10
2018-07-24T14:14:50.980Z,54.00
2018-07-24T14:17:20.126Z,52.30
2018-07-24T14:19:49.452Z,52.40
2018-07-24T14:22:18.592Z,51.50
2018-07-24T14:27:16.706Z,51.80
2018-07-24T14:29:45.886Z,54.60
2018-07-24T14:32:15.051Z,53.30
2018-07-24T14:34:45.330Z,51.20
2018-07-24T14:37:15.818Z,51.60
2018-07-24T14:39:45.782Z,50.40
2018-07-24T14:42:20.403Z,49.20
2018-07-24T14:44:51.080Z,47.50
2018-07-24T14:47:20.727Z,48.00
2018-07-24T14:49:50.063Z,48.30
2018-07-24T14:52:20.486Z,47.00
2018-07-24T14:54:50.673Z,47.20
2018-07-24T14:57:21.427Z,48.50
2018-07-24T14:59:50.923Z,48.90
2018-07-24T15:02:28.052Z,49.00
2018-07-24T15:04:59.925Z,47.50
2018-07-24T15:07:29.372Z,46.90
2018-07-24T15:09:58.975Z,48.20
2018-07-24T15:12:29.133Z,48.40
2018-07-24T15:14:58.669Z,48.00
2018-07-24T15:17:28.277Z,47.70
2018-07-24T15:19:58.146Z,47.10
2018-07-24T15:22:28.035Z,48.30
2018-07-24T15:24:57.669Z,48.60
2018-07-24T15:27:27.541Z,48.00
2018-07-24T15:30:07.734Z,50.90
2018-07-24T15:32:38.797Z,48.60
2018-07-24T15:35:09.391Z,47.60
2018-07-24T15:37:39.686Z,45.70
2018-07-24T15:42:37.829Z,46.40
2018-07-24T15:45:13.871Z,46.50
2018-07-24T15:47:43.276Z,46.00
2018-07-24T15:50:14.153Z,44.80
2018-07-24T15:52:43.942Z,46.20
2018-07-24T15:55:13.989Z,46.80
2018-07-24T15:57:43.666Z,46.80
2018-07-24T16:00:12.799Z,45.40
2018-07-24T16:05:11.822Z,46.40
2018-07-24T16:07:41.443Z,46.10
2018-07-24T16:10:10.694Z,46.70
2018-07-24T16:12:41.307Z,46.90
2018-07-24T16:15:10.591Z,46.60
2018-07-24T16:17:40.725Z,47.90
2018-07-24T16:20:10.107Z,46.30
2018-07-24T16:22:39.904Z,45.40
2018-07-24T16:27:38.491Z,46.40
2018-07-24T16:30:07.982Z,47.20
2018-07-24T16:32:37.991Z,46.80
2018-07-24T16:35:07.151Z,45.80
2018-07-24T16:37:36.829Z,46.60
2018-07-24T16:40:11.154Z,47.60
2018-07-24T16:42:41.460Z,47.40
2018-07-24T16:47:39.775Z,47.50
2018-07-24T16:50:09.250Z,47.00
2018-07-24T16:55:07.077Z,46.50
2018-07-24T16:57:36.619Z,45.20
2018-07-24T17:00:06.223Z,45.20
2018-07-24T17:02:35.503Z,44.80
2018-07-24T17:05:04.996Z,46.70
2018-07-24T17:07:34.124Z,47.20
2018-07-24T17:10:03.295Z,47.40
2018-07-24T17:12:32.797Z,46.70
2018-07-24T17:15:01.884Z,45.80
2018-07-24T17:17:31.053Z,45.40
2018-07-24T17:20:00.294Z,46.00
2018-07-24T17:22:29.436Z,45.10
2018-07-24T17:24:58.695Z,43.80
2018-07-24T17:27:28.061Z,44.50
2018-07-24T17:35:01.493Z,45.10
2018-07-24T17:37:30.639Z,45.30
2018-07-24T17:40:00.377Z,45.40
2018-07-24T17:42:30.065Z,45.10
2018-07-24T17:47:29.626Z,45.20
2018-07-24T17:49:59.204Z,46.10
2018-07-24T17:52:28.592Z,46.40
2018-07-24T17:55:03.857Z,46.00
2018-07-24T17:57:35.593Z,47.30
2018-07-24T18:00:05.358Z,49.90
2018-07-24T18:02:54.683Z,49.90
2018-07-24T18:05:25.481Z,50.60
2018-07-24T18:07:54.959Z,49.10
2018-07-24T18:10:32.396Z,49.20
2018-07-24T18:13:01.611Z,50.10
2018-07-24T18:15:32.647Z,49.80
2018-07-24T18:18:04.471Z,51.00
2018-07-24T18:20:33.840Z,52.20
2018-07-24T18:23:06.448Z,53.60
2018-07-24T18:25:35.588Z,54.20
2018-07-24T18:28:21.411Z,54.70
2018-07-24T18:30:50.794Z,54.80
2018-07-24T18:33:20.089Z,55.60
2018-07-24T18:35:49.251Z,55.70
2018-07-24T18:38:18.484Z,56.00
2018-07-24T18:43:16.532Z,57.10
2018-07-24T18:45:45.841Z,58.40
2018-07-24T18:48:15.014Z,58.70
2018-07-24T18:50:44.292Z,59.20
2018-07-24T18:53:13.732Z,59.10
2018-07-24T18:55:43.013Z,60.80
2018-07-24T18:58:12.297Z,62.00
2018-07-24T19:00:41.808Z,61.70
2018-07-24T19:03:11.009Z,62.50
2018-07-24T19:05:40.149Z,62.40
2018-07-24T19:08:09.491Z,62.20
2018-07-24T19:10:38.670Z,61.50
2018-07-24T19:15:36.827Z,62.50
2018-07-24T19:18:06.067Z,62.70
2018-07-24T19:23:04.058Z,65.30
2018-07-24T19:25:33.190Z,65.00
2018-07-24T19:28:02.317Z,65.30
2018-07-24T19:30:31.575Z,66.30
2018-07-24T19:33:00.681Z,66.90
2018-07-24T19:35:29.835Z,67.90
2018-07-24T19:37:59.145Z,69.40
2018-07-24T19:40:28.295Z,70.60
2018-07-24T19:42:57.513Z,70.90
2018-07-24T19:45:26.939Z,72.00
2018-07-24T19:50:25.154Z,72.90
2018-07-24T19:53:00.247Z,73.40
2018-07-24T19:55:29.829Z,73.60
2018-07-24T19:57:59.385Z,72.70
2018-07-24T20:00:28.791Z,72.80
2018-07-24T20:02:58.407Z,74.30
2018-07-24T20:05:28.639Z,73.40
2018-07-24T20:07:57.825Z,74.00
2018-07-24T20:10:26.987Z,74.10
2018-07-24T20:12:56.481Z,74.50
2018-07-24T20:15:25.751Z,74.90
2018-07-24T20:17:55.487Z,75.70
2018-07-24T20:20:24.839Z,76.90
2018-07-24T20:22:55.508Z,77.20
2018-07-24T20:25:25.495Z,77.50
2018-07-24T20:27:54.625Z,78.50
2018-07-24T20:30:23.801Z,79.70
2018-07-24T20:32:53.293Z,80.60
2018-07-24T20:35:22.550Z,81.20
2018-07-24T20:37:52.203Z,81.50
2018-07-24T20:40:21.537Z,82.40
2018-07-24T20:42:50.759Z,82.10
2018-07-24T20:45:19.886Z,82.20
2018-07-24T20:47:49.315Z,80.80
2018-07-24T20:50:18.489Z,82.30
2018-07-24T20:52:47.651Z,82.90
2018-07-24T20:57:45.744Z,85.30
2018-07-24T21:00:14.925Z,85.90
2018-07-24T21:02:44.413Z,89.00
2018-07-24T21:05:13.665Z,89.70
2018-07-24T21:07:42.789Z,90.50
2018-07-24T21:10:17.941Z,90.50
2018-07-24T21:12:48.399Z,91.30
2018-07-24T21:17:47.225Z,91.80
2018-07-24T21:20:17.123Z,92.00
2018-07-24T21:25:15.287Z,91.80
2018-07-24T21:27:44.481Z,91.20
2018-07-24T21:30:13.805Z,91.80
2018-07-24T21:32:43.169Z,92.50
2018-07-24T21:35:12.295Z,92.60
2018-07-24T21:37:41.681Z,93.20
2018-07-24T21:40:11.219Z,94.20
2018-07-24T21:42:40.364Z,94.10
2018-07-24T21:45:09.850Z,94.70
2018-07-24T21:47:38.996Z,95.20
2018-07-24T21:50:08.367Z,95.10
2018-07-24T21:52:37.645Z,95.60
2018-07-24T21:55:06.775Z,95.90
2018-07-24T21:57:35.929Z,96.70
2018-07-24T22:00:08.156Z,96.30
2018-07-24T22:02:37.311Z,96.60
2018-07-24T22:05:06.792Z,97.30
2018-07-24T22:07:36.737Z,97.60
2018-07-24T22:10:11.333Z,98.10
2018-07-24T22:15:14.618Z,98.60
2018-07-24T22:17:44.132Z,98.30
2018-07-24T22:22:42.012Z,99.30
2018-07-24T22:27:51.952Z,99.90
2018-07-24T22:30:23.149Z,99.90
2018-07-24T22:32:52.407Z,99.90
2018-07-24T22:35:21.667Z,99.90
2018-07-24T22:37:50.805Z,99.90
2018-07-24T22:40:20.751Z,99.90
2018-07-24T22:42:49.911Z,99.90
2018-07-24T22:45:19.047Z,99.90
2018-07-24T22:47:48.619Z,99.90
2018-07-24T22:50:19.058Z,99.90
2018-07-24T22:52:48.149Z,99.90
2018-07-24T22:55:17.637Z,99.90
2018-07-24T22:57:46.753Z,99.90
2018-07-24T23:00:17.332Z,99.90
2018-07-24T23:02:46.623Z,99.90
2018-07-24T23:05:15.779Z,99.90
2018-07-24T23:07:46.069Z,99.90
2018-07-24T23:10:15.587Z,99.90
2018-07-24T23:12:44.931Z,99.90
2018-07-24T23:15:14.072Z,99.90
2018-07-24T23:17:43.429Z,99.90
2018-07-24T23:22:41.317Z,99.90
2018-07-24T23:25:12.012Z,99.90
2018-07-24T23:27:41.147Z,99.90
2018-07-24T23:30:10.307Z,99.90
2018-07-24T23:32:40.063Z,99.90
2018-07-24T23:35:09.199Z,99.90
2018-07-24T23:37:38.325Z,99.90
2018-07-24T23:40:07.951Z,99.90
2018-07-24T23:42:37.253Z,99.90
2018-07-24T23:47:35.699Z,99.90
2018-07-24T23:50:05.009Z,99.90
2018-07-24T23:52:34.517Z,99.90
2018-07-24T23:55:03.883Z,99.90
2018-07-24T23:57:32.989Z,99.90
